sensor_id;sensor_type;location;lat;lon;timestamp;P1;durP1;ratioP1;P2;durP2;ratioP2
17175;SDS011;8703;48.996;9.594;2023-06-24T00:02:22;5.22;;;4.00;;
17175;SDS011;8703;48.996;9.594;2023-06-24T00:04:49;4.95;;;4.00;;
17175;SDS011;8703;48.996;9.594;2023-06-24T00:07:17;4.60;;;3.50;;
17175;SDS011;8703;48.996;9.594;2023-06-24T00:09:47;4.10;;;3.45;;
17175;SDS011;8703;48.996;9.594;2023-06-24T00:12:15;4.93;;;3.60;;
17175;SDS011;8703;48.996;9.594;2023-06-24T00:14:44;4.70;;;4.00;;
17175;SDS011;8703;48.996;9.594;2023-06-24T00:17:12;5.13;;;3.72;;
17175;SDS011;8703;48.996;9.594;2023-06-24T00:19:41;5.20;;;3.58;;
17175;SDS011;8703;48.996;9.594;2023-06-24T00:22:10;4.55;;;3.50;;
17175;SDS011;8703;48.996;9.594;2023-06-24T00:24:37;4.05;;;3.47;;
17175;SDS011;8703;48.996;9.594;2023-06-24T00:27:05;4.05;;;3.65;;
17175;SDS011;8703;48.996;9.594;2023-06-24T00:29:34;4.65;;;3.60;;
17175;SDS011;8703;48.996;9.594;2023-06-24T00:32:01;5.18;;;3.50;;
17175;SDS011;8703;48.996;9.594;2023-06-24T00:34:28;4.68;;;3.40;;
17175;SDS011;8703;48.996;9.594;2023-06-24T00:36:56;4.00;;;3.60;;
17175;SDS011;8703;48.996;9.594;2023-06-24T00:39:23;4.78;;;3.50;;
17175;SDS011;8703;48.996;9.594;2023-06-24T00:41:50;6.00;;;3.53;;
17175;SDS011;8703;48.996;9.594;2023-06-24T00:44:18;5.40;;;3.80;;
17175;SDS011;8703;48.996;9.594;2023-06-24T00:46:47;6.40;;;3.90;;
17175;SDS011;8703;48.996;9.594;2023-06-24T00:49:15;6.88;;;3.90;;
17175;SDS011;8703;48.996;9.594;2023-06-24T00:51:42;5.38;;;3.53;;
17175;SDS011;8703;48.996;9.594;2023-06-24T00:54:15;4.95;;;3.70;;
17175;SDS011;8703;48.996;9.594;2023-06-24T00:56:42;5.90;;;3.83;;
17175;SDS011;8703;48.996;9.594;2023-06-24T00:59:12;4.50;;;3.67;;
17175;SDS011;8703;48.996;9.594;2023-06-24T01:01:41;5.03;;;3.67;;
17175;SDS011;8703;48.996;9.594;2023-06-24T01:04:11;4.18;;;3.40;;
17175;SDS011;8703;48.996;9.594;2023-06-24T01:06:41;5.88;;;3.67;;
17175;SDS011;8703;48.996;9.594;2023-06-24T01:09:09;5.10;;;3.80;;
17175;SDS011;8703;48.996;9.594;2023-06-24T01:11:36;4.53;;;4.07;;
17175;SDS011;8703;48.996;9.594;2023-06-24T01:14:04;4.32;;;3.63;;
17175;SDS011;8703;48.996;9.594;2023-06-24T01:16:33;4.25;;;3.33;;
17175;SDS011;8703;48.996;9.594;2023-06-24T01:19:09;5.27;;;3.53;;
17175;SDS011;8703;48.996;9.594;2023-06-24T01:21:56;4.80;;;3.30;;
17175;SDS011;8703;48.996;9.594;2023-06-24T01:24:39;4.70;;;3.40;;
17175;SDS011;8703;48.996;9.594;2023-06-24T01:30:12;4.73;;;3.37;;
17175;SDS011;8703;48.996;9.594;2023-06-24T01:33:12;4.40;;;3.37;;
17175;SDS011;8703;48.996;9.594;2023-06-24T01:35:43;4.27;;;3.43;;
17175;SDS011;8703;48.996;9.594;2023-06-24T01:38:14;4.53;;;3.28;;
17175;SDS011;8703;48.996;9.594;2023-06-24T01:40:47;5.80;;;3.67;;
17175;SDS011;8703;48.996;9.594;2023-06-24T01:43:15;4.27;;;3.27;;
17175;SDS011;8703;48.996;9.594;2023-06-24T01:45:45;5.33;;;3.53;;
17175;SDS011;8703;48.996;9.594;2023-06-24T01:48:15;4.67;;;3.40;;
17175;SDS011;8703;48.996;9.594;2023-06-24T01:50:45;4.27;;;3.30;;
17175;SDS011;8703;48.996;9.594;2023-06-24T01:53:14;6.67;;;3.37;;
17175;SDS011;8703;48.996;9.594;2023-06-24T01:55:42;5.10;;;3.47;;
17175;SDS011;8703;48.996;9.594;2023-06-24T01:58:10;4.90;;;3.60;;
17175;SDS011;8703;48.996;9.594;2023-06-24T02:00:38;4.40;;;3.43;;
17175;SDS011;8703;48.996;9.594;2023-06-24T02:03:06;4.53;;;3.40;;
17175;SDS011;8703;48.996;9.594;2023-06-24T02:05:36;7.53;;;3.60;;
17175;SDS011;8703;48.996;9.594;2023-06-24T02:08:04;4.43;;;3.30;;
17175;SDS011;8703;48.996;9.594;2023-06-24T02:10:32;4.63;;;3.87;;
17175;SDS011;8703;48.996;9.594;2023-06-24T02:12:59;4.13;;;3.30;;
17175;SDS011;8703;48.996;9.594;2023-06-24T02:15:27;4.70;;;3.87;;
17175;SDS011;8703;48.996;9.594;2023-06-24T02:17:55;7.83;;;3.73;;
17175;SDS011;8703;48.996;9.594;2023-06-24T02:20:23;6.03;;;3.93;;
17175;SDS011;8703;48.996;9.594;2023-06-24T02:22:53;5.47;;;3.90;;
17175;SDS011;8703;48.996;9.594;2023-06-24T02:25:20;4.93;;;3.83;;
17175;SDS011;8703;48.996;9.594;2023-06-24T02:27:48;4.60;;;3.77;;
17175;SDS011;8703;48.996;9.594;2023-06-24T02:30:16;4.20;;;3.80;;
17175;SDS011;8703;48.996;9.594;2023-06-24T02:32:44;3.60;;;3.30;;
17175;SDS011;8703;48.996;9.594;2023-06-24T02:35:11;4.60;;;3.80;;
17175;SDS011;8703;48.996;9.594;2023-06-24T02:37:39;6.57;;;3.73;;
17175;SDS011;8703;48.996;9.594;2023-06-24T02:40:08;5.03;;;3.53;;
17175;SDS011;8703;48.996;9.594;2023-06-24T02:42:36;6.10;;;3.83;;
17175;SDS011;8703;48.996;9.594;2023-06-24T02:45:04;5.57;;;3.87;;
17175;SDS011;8703;48.996;9.594;2023-06-24T02:47:32;4.63;;;3.67;;
17175;SDS011;8703;48.996;9.594;2023-06-24T02:50:00;5.67;;;3.57;;
17175;SDS011;8703;48.996;9.594;2023-06-24T02:52:28;4.90;;;3.80;;
17175;SDS011;8703;48.996;9.594;2023-06-24T02:54:56;4.83;;;3.67;;
17175;SDS011;8703;48.996;9.594;2023-06-24T02:57:26;5.20;;;3.57;;
17175;SDS011;8703;48.996;9.594;2023-06-24T02:59:53;4.80;;;3.90;;
17175;SDS011;8703;48.996;9.594;2023-06-24T03:02:21;4.67;;;3.80;;
17175;SDS011;8703;48.996;9.594;2023-06-24T03:04:48;5.23;;;3.93;;
17175;SDS011;8703;48.996;9.594;2023-06-24T03:07:17;4.77;;;3.77;;
17175;SDS011;8703;48.996;9.594;2023-06-24T03:09:45;5.10;;;3.80;;
17175;SDS011;8703;48.996;9.594;2023-06-24T03:12:13;5.17;;;4.03;;
17175;SDS011;8703;48.996;9.594;2023-06-24T03:14:41;5.87;;;4.03;;
17175;SDS011;8703;48.996;9.594;2023-06-24T03:17:09;4.33;;;3.60;;
17175;SDS011;8703;48.996;9.594;2023-06-24T03:19:37;5.40;;;3.87;;
17175;SDS011;8703;48.996;9.594;2023-06-24T03:22:04;5.40;;;4.30;;
17175;SDS011;8703;48.996;9.594;2023-06-24T03:24:31;4.30;;;3.50;;
17175;SDS011;8703;48.996;9.594;2023-06-24T03:26:59;6.17;;;4.27;;
17175;SDS011;8703;48.996;9.594;2023-06-24T03:29:26;4.83;;;4.20;;
17175;SDS011;8703;48.996;9.594;2023-06-24T03:31:55;4.90;;;3.80;;
17175;SDS011;8703;48.996;9.594;2023-06-24T03:34:22;4.33;;;3.73;;
17175;SDS011;8703;48.996;9.594;2023-06-24T03:36:51;4.60;;;3.80;;
17175;SDS011;8703;48.996;9.594;2023-06-24T03:39:19;5.17;;;3.80;;
17175;SDS011;8703;48.996;9.594;2023-06-24T03:41:46;4.97;;;4.10;;
17175;SDS011;8703;48.996;9.594;2023-06-24T03:44:14;5.53;;;4.07;;
17175;SDS011;8703;48.996;9.594;2023-06-24T03:46:41;6.90;;;4.10;;
17175;SDS011;8703;48.996;9.594;2023-06-24T03:49:10;5.77;;;3.93;;
17175;SDS011;8703;48.996;9.594;2023-06-24T03:51:37;5.00;;;3.93;;
17175;SDS011;8703;48.996;9.594;2023-06-24T03:54:05;6.00;;;3.77;;
17175;SDS011;8703;48.996;9.594;2023-06-24T03:56:32;5.63;;;3.83;;
17175;SDS011;8703;48.996;9.594;2023-06-24T03:58:59;5.07;;;3.60;;
17175;SDS011;8703;48.996;9.594;2023-06-24T04:01:27;5.20;;;3.80;;
17175;SDS011;8703;48.996;9.594;2023-06-24T04:03:56;3.90;;;3.50;;
17175;SDS011;8703;48.996;9.594;2023-06-24T04:06:25;4.63;;;3.73;;
17175;SDS011;8703;48.996;9.594;2023-06-24T04:08:52;5.43;;;3.50;;
17175;SDS011;8703;48.996;9.594;2023-06-24T04:11:20;4.17;;;3.63;;
17175;SDS011;8703;48.996;9.594;2023-06-24T04:13:47;5.27;;;3.77;;
17175;SDS011;8703;48.996;9.594;2023-06-24T04:16:14;5.47;;;4.07;;
17175;SDS011;8703;48.996;9.594;2023-06-24T04:18:42;6.60;;;4.07;;
17175;SDS011;8703;48.996;9.594;2023-06-24T04:21:09;5.90;;;3.90;;
17175;SDS011;8703;48.996;9.594;2023-06-24T04:23:38;6.93;;;4.73;;
17175;SDS011;8703;48.996;9.594;2023-06-24T04:26:05;5.83;;;4.50;;
17175;SDS011;8703;48.996;9.594;2023-06-24T04:28:32;4.83;;;3.97;;
17175;SDS011;8703;48.996;9.594;2023-06-24T04:31:00;5.57;;;4.10;;
17175;SDS011;8703;48.996;9.594;2023-06-24T04:33:27;5.07;;;3.70;;
17175;SDS011;8703;48.996;9.594;2023-06-24T04:35:54;5.30;;;3.70;;
17175;SDS011;8703;48.996;9.594;2023-06-24T04:38:23;6.10;;;4.30;;
17175;SDS011;8703;48.996;9.594;2023-06-24T04:40:52;5.60;;;3.93;;
17175;SDS011;8703;48.996;9.594;2023-06-24T04:43:19;4.87;;;3.70;;
17175;SDS011;8703;48.996;9.594;2023-06-24T04:45:46;5.80;;;4.07;;
17175;SDS011;8703;48.996;9.594;2023-06-24T04:48:14;5.93;;;3.93;;
17175;SDS011;8703;48.996;9.594;2023-06-24T04:50:41;4.30;;;3.73;;
17175;SDS011;8703;48.996;9.594;2023-06-24T04:53:08;4.60;;;3.80;;
17175;SDS011;8703;48.996;9.594;2023-06-24T04:55:36;5.33;;;4.13;;
17175;SDS011;8703;48.996;9.594;2023-06-24T04:58:05;5.43;;;4.00;;
17175;SDS011;8703;48.996;9.594;2023-06-24T05:00:32;5.80;;;4.13;;
17175;SDS011;8703;48.996;9.594;2023-06-24T05:02:59;5.63;;;4.20;;
17175;SDS011;8703;48.996;9.594;2023-06-24T05:05:27;5.13;;;4.23;;
17175;SDS011;8703;48.996;9.594;2023-06-24T05:07:54;7.00;;;4.63;;
17175;SDS011;8703;48.996;9.594;2023-06-24T05:10:21;6.67;;;4.70;;
17175;SDS011;8703;48.996;9.594;2023-06-24T05:12:49;5.83;;;4.57;;
17175;SDS011;8703;48.996;9.594;2023-06-24T05:15:17;5.87;;;4.60;;
17175;SDS011;8703;48.996;9.594;2023-06-24T05:17:45;5.47;;;4.40;;
17175;SDS011;8703;48.996;9.594;2023-06-24T05:20:12;6.20;;;4.20;;
17175;SDS011;8703;48.996;9.594;2023-06-24T05:22:39;4.80;;;4.20;;
17175;SDS011;8703;48.996;9.594;2023-06-24T05:25:07;5.47;;;3.90;;
17175;SDS011;8703;48.996;9.594;2023-06-24T05:27:35;4.83;;;4.27;;
17175;SDS011;8703;48.996;9.594;2023-06-24T05:30:02;5.20;;;4.17;;
17175;SDS011;8703;48.996;9.594;2023-06-24T05:32:31;5.23;;;4.40;;
17175;SDS011;8703;48.996;9.594;2023-06-24T05:34:59;4.50;;;3.87;;
17175;SDS011;8703;48.996;9.594;2023-06-24T05:37:26;5.07;;;3.80;;
17175;SDS011;8703;48.996;9.594;2023-06-24T05:39:53;4.70;;;4.10;;
17175;SDS011;8703;48.996;9.594;2023-06-24T05:42:22;4.30;;;3.90;;
17175;SDS011;8703;48.996;9.594;2023-06-24T05:44:50;4.30;;;3.63;;
17175;SDS011;8703;48.996;9.594;2023-06-24T05:47:18;5.00;;;3.90;;
17175;SDS011;8703;48.996;9.594;2023-06-24T05:49:47;4.77;;;4.00;;
17175;SDS011;8703;48.996;9.594;2023-06-24T05:52:14;4.57;;;3.97;;
17175;SDS011;8703;48.996;9.594;2023-06-24T05:54:41;5.53;;;3.90;;
17175;SDS011;8703;48.996;9.594;2023-06-24T05:57:09;5.20;;;4.10;;
17175;SDS011;8703;48.996;9.594;2023-06-24T05:59:36;5.10;;;4.03;;
17175;SDS011;8703;48.996;9.594;2023-06-24T06:02:03;5.23;;;4.23;;
17175;SDS011;8703;48.996;9.594;2023-06-24T06:04:31;4.68;;;3.83;;
17175;SDS011;8703;48.996;9.594;2023-06-24T06:07:00;4.47;;;3.97;;
17175;SDS011;8703;48.996;9.594;2023-06-24T06:09:27;5.53;;;4.10;;
17175;SDS011;8703;48.996;9.594;2023-06-24T06:11:54;4.90;;;4.00;;
17175;SDS011;8703;48.996;9.594;2023-06-24T06:14:22;5.17;;;4.30;;
17175;SDS011;8703;48.996;9.594;2023-06-24T06:16:49;4.72;;;4.22;;
17175;SDS011;8703;48.996;9.594;2023-06-24T06:19:16;6.07;;;4.70;;
17175;SDS011;8703;48.996;9.594;2023-06-24T06:21:44;5.80;;;5.00;;
17175;SDS011;8703;48.996;9.594;2023-06-24T06:24:12;5.75;;;4.90;;
17175;SDS011;8703;48.996;9.594;2023-06-24T06:26:41;5.90;;;4.47;;
17175;SDS011;8703;48.996;9.594;2023-06-24T06:29:09;6.03;;;4.68;;
17175;SDS011;8703;48.996;9.594;2023-06-24T06:31:36;5.63;;;4.57;;
17175;SDS011;8703;48.996;9.594;2023-06-24T06:34:04;4.60;;;4.03;;
17175;SDS011;8703;48.996;9.594;2023-06-24T06:36:32;5.25;;;3.70;;
17175;SDS011;8703;48.996;9.594;2023-06-24T06:38:59;5.10;;;4.00;;
17175;SDS011;8703;48.996;9.594;2023-06-24T06:41:27;4.93;;;4.18;;
17175;SDS011;8703;48.996;9.594;2023-06-24T06:43:55;5.43;;;4.00;;
17175;SDS011;8703;48.996;9.594;2023-06-24T06:46:22;4.75;;;4.18;;
17175;SDS011;8703;48.996;9.594;2023-06-24T06:48:50;4.43;;;3.70;;
17175;SDS011;8703;48.996;9.594;2023-06-24T06:51:17;4.43;;;4.03;;
17175;SDS011;8703;48.996;9.594;2023-06-24T06:53:45;12.68;;;11.38;;
17175;SDS011;8703;48.996;9.594;2023-06-24T06:56:16;47.50;;;36.08;;
17175;SDS011;8703;48.996;9.594;2023-06-24T06:58:45;7.80;;;7.05;;
17175;SDS011;8703;48.996;9.594;2023-06-24T07:01:12;4.85;;;4.18;;
17175;SDS011;8703;48.996;9.594;2023-06-24T07:03:40;4.22;;;3.83;;
17175;SDS011;8703;48.996;9.594;2023-06-24T07:06:07;4.05;;;3.65;;
17175;SDS011;8703;48.996;9.594;2023-06-24T07:08:34;5.55;;;4.72;;
17175;SDS011;8703;48.996;9.594;2023-06-24T07:11:02;4.82;;;4.28;;
17175;SDS011;8703;48.996;9.594;2023-06-24T07:13:29;4.55;;;3.65;;
17175;SDS011;8703;48.996;9.594;2023-06-24T07:15:58;5.07;;;4.05;;
17175;SDS011;8703;48.996;9.594;2023-06-24T07:18:25;5.03;;;3.70;;
17175;SDS011;8703;48.996;9.594;2023-06-24T07:20:55;3.97;;;3.55;;
17175;SDS011;8703;48.996;9.594;2023-06-24T07:23:23;4.63;;;3.70;;
17175;SDS011;8703;48.996;9.594;2023-06-24T07:25:50;4.35;;;3.95;;
17175;SDS011;8703;48.996;9.594;2023-06-24T07:28:17;5.00;;;4.25;;
17175;SDS011;8703;48.996;9.594;2023-06-24T07:30:45;4.45;;;3.90;;
17175;SDS011;8703;48.996;9.594;2023-06-24T07:33:14;4.30;;;3.60;;
17175;SDS011;8703;48.996;9.594;2023-06-24T07:35:42;4.10;;;3.40;;
17175;SDS011;8703;48.996;9.594;2023-06-24T07:38:09;4.00;;;3.60;;
17175;SDS011;8703;48.996;9.594;2023-06-24T07:40:37;4.20;;;3.67;;
17175;SDS011;8703;48.996;9.594;2023-06-24T07:43:04;4.45;;;3.40;;
17175;SDS011;8703;48.996;9.594;2023-06-24T07:45:32;4.55;;;3.50;;
17175;SDS011;8703;48.996;9.594;2023-06-24T07:47:59;4.00;;;3.45;;
17175;SDS011;8703;48.996;9.594;2023-06-24T07:50:28;5.03;;;3.35;;
17175;SDS011;8703;48.996;9.594;2023-06-24T07:52:56;5.20;;;3.55;;
17175;SDS011;8703;48.996;9.594;2023-06-24T07:55:23;4.78;;;3.40;;
17175;SDS011;8703;48.996;9.594;2023-06-24T07:57:50;3.90;;;3.50;;
17175;SDS011;8703;48.996;9.594;2023-06-24T08:00:18;3.85;;;3.38;;
17175;SDS011;8703;48.996;9.594;2023-06-24T08:02:45;4.00;;;3.60;;
17175;SDS011;8703;48.996;9.594;2023-06-24T08:05:13;3.90;;;3.50;;
17175;SDS011;8703;48.996;9.594;2023-06-24T08:07:41;4.85;;;3.70;;
17175;SDS011;8703;48.996;9.594;2023-06-24T08:10:08;4.88;;;3.45;;
17175;SDS011;8703;48.996;9.594;2023-06-24T08:12:36;5.07;;;3.70;;
17175;SDS011;8703;48.996;9.594;2023-06-24T08:15:04;5.43;;;3.75;;
17175;SDS011;8703;48.996;9.594;2023-06-24T08:17:32;3.85;;;3.22;;
17175;SDS011;8703;48.996;9.594;2023-06-24T08:20:00;3.90;;;3.50;;
17175;SDS011;8703;48.996;9.594;2023-06-24T08:22:27;4.93;;;3.92;;
17175;SDS011;8703;48.996;9.594;2023-06-24T08:24:56;6.22;;;3.55;;
17175;SDS011;8703;48.996;9.594;2023-06-24T08:27:24;4.03;;;3.60;;
17175;SDS011;8703;48.996;9.594;2023-06-24T08:29:51;4.47;;;3.33;;
17175;SDS011;8703;48.996;9.594;2023-06-24T08:32:18;4.30;;;3.55;;
17175;SDS011;8703;48.996;9.594;2023-06-24T08:34:46;4.38;;;3.63;;
17175;SDS011;8703;48.996;9.594;2023-06-24T08:37:13;4.28;;;3.35;;
17175;SDS011;8703;48.996;9.594;2023-06-24T08:39:40;4.18;;;3.20;;
17175;SDS011;8703;48.996;9.594;2023-06-24T08:42:09;3.88;;;3.22;;
17175;SDS011;8703;48.996;9.594;2023-06-24T08:44:36;5.53;;;3.50;;
17175;SDS011;8703;48.996;9.594;2023-06-24T08:47:04;4.18;;;3.42;;
17175;SDS011;8703;48.996;9.594;2023-06-24T08:49:31;4.28;;;3.40;;
17175;SDS011;8703;48.996;9.594;2023-06-24T08:52:01;3.63;;;3.17;;
17175;SDS011;8703;48.996;9.594;2023-06-24T08:54:32;4.18;;;3.35;;
17175;SDS011;8703;48.996;9.594;2023-06-24T08:57:01;3.33;;;3.03;;
17175;SDS011;8703;48.996;9.594;2023-06-24T08:59:34;4.32;;;3.47;;
17175;SDS011;8703;48.996;9.594;2023-06-24T09:02:02;5.68;;;3.40;;
17175;SDS011;8703;48.996;9.594;2023-06-24T09:04:30;3.85;;;3.47;;
17175;SDS011;8703;48.996;9.594;2023-06-24T09:06:57;4.60;;;3.50;;
17175;SDS011;8703;48.996;9.594;2023-06-24T09:09:25;3.92;;;3.35;;
17175;SDS011;8703;48.996;9.594;2023-06-24T09:11:54;4.22;;;3.42;;
17175;SDS011;8703;48.996;9.594;2023-06-24T09:14:22;4.00;;;3.55;;
17175;SDS011;8703;48.996;9.594;2023-06-24T09:16:53;4.15;;;3.75;;
17175;SDS011;8703;48.996;9.594;2023-06-24T09:19:21;3.88;;;3.55;;
17175;SDS011;8703;48.996;9.594;2023-06-24T09:21:49;4.45;;;3.58;;
17175;SDS011;8703;48.996;9.594;2023-06-24T09:24:18;4.45;;;3.58;;
17175;SDS011;8703;48.996;9.594;2023-06-24T09:26:45;4.18;;;3.78;;
17175;SDS011;8703;48.996;9.594;2023-06-24T09:29:12;4.93;;;3.55;;
17175;SDS011;8703;48.996;9.594;2023-06-24T09:31:49;4.32;;;3.92;;
17175;SDS011;8703;48.996;9.594;2023-06-24T09:34:20;4.40;;;3.85;;
17175;SDS011;8703;48.996;9.594;2023-06-24T09:36:51;5.45;;;4.95;;
17175;SDS011;8703;48.996;9.594;2023-06-24T09:39:19;4.97;;;4.53;;
17175;SDS011;8703;48.996;9.594;2023-06-24T09:41:48;8.63;;;3.58;;
17175;SDS011;8703;48.996;9.594;2023-06-24T09:44:16;5.18;;;4.78;;
17175;SDS011;8703;48.996;9.594;2023-06-24T09:46:44;6.00;;;5.55;;
17175;SDS011;8703;48.996;9.594;2023-06-24T09:49:13;3.72;;;3.42;;
17175;SDS011;8703;48.996;9.594;2023-06-24T09:51:42;4.45;;;4.05;;
17175;SDS011;8703;48.996;9.594;2023-06-24T09:54:11;4.07;;;3.65;;
17175;SDS011;8703;48.996;9.594;2023-06-24T09:56:40;5.07;;;4.20;;
17175;SDS011;8703;48.996;9.594;2023-06-24T09:59:09;5.38;;;4.88;;
17175;SDS011;8703;48.996;9.594;2023-06-24T10:01:38;4.53;;;4.13;;
17175;SDS011;8703;48.996;9.594;2023-06-24T10:04:07;4.60;;;4.20;;
17175;SDS011;8703;48.996;9.594;2023-06-24T10:06:36;4.53;;;4.13;;
17175;SDS011;8703;48.996;9.594;2023-06-24T10:09:03;4.18;;;3.78;;
17175;SDS011;8703;48.996;9.594;2023-06-24T10:11:31;4.78;;;4.13;;
17175;SDS011;8703;48.996;9.594;2023-06-24T10:13:59;4.15;;;3.83;;
17175;SDS011;8703;48.996;9.594;2023-06-24T10:16:26;4.85;;;4.28;;
17175;SDS011;8703;48.996;9.594;2023-06-24T10:18:59;5.97;;;5.50;;
17175;SDS011;8703;48.996;9.594;2023-06-24T10:24:12;7.82;;;7.30;;
17175;SDS011;8703;48.996;9.594;2023-06-24T10:26:40;5.85;;;5.45;;
17175;SDS011;8703;48.996;9.594;2023-06-24T10:29:10;7.43;;;6.93;;
17175;SDS011;8703;48.996;9.594;2023-06-24T10:31:52;10.55;;;9.90;;
17175;SDS011;8703;48.996;9.594;2023-06-24T10:34:22;7.78;;;7.28;;
17175;SDS011;8703;48.996;9.594;2023-06-24T10:36:54;7.20;;;6.60;;
17175;SDS011;8703;48.996;9.594;2023-06-24T10:39:37;12.10;;;11.35;;
17175;SDS011;8703;48.996;9.594;2023-06-24T10:44:56;6.53;;;6.07;;
17175;SDS011;8703;48.996;9.594;2023-06-24T10:47:24;7.38;;;6.88;;
17175;SDS011;8703;48.996;9.594;2023-06-24T10:49:52;8.25;;;7.72;;
17175;SDS011;8703;48.996;9.594;2023-06-24T10:52:21;9.38;;;8.77;;
17175;SDS011;8703;48.996;9.594;2023-06-24T10:54:49;8.10;;;7.55;;
17175;SDS011;8703;48.996;9.594;2023-06-24T10:57:21;12.40;;;11.65;;
17175;SDS011;8703;48.996;9.594;2023-06-24T10:59:50;8.35;;;7.85;;
17175;SDS011;8703;48.996;9.594;2023-06-24T11:02:19;7.55;;;7.03;;
17175;SDS011;8703;48.996;9.594;2023-06-24T11:04:47;8.23;;;7.55;;
17175;SDS011;8703;48.996;9.594;2023-06-24T11:07:16;8.05;;;7.38;;
17175;SDS011;8703;48.996;9.594;2023-06-24T11:09:49;8.73;;;8.13;;
17175;SDS011;8703;48.996;9.594;2023-06-24T11:12:17;7.15;;;6.65;;
17175;SDS011;8703;48.996;9.594;2023-06-24T11:14:44;7.20;;;6.75;;
17175;SDS011;8703;48.996;9.594;2023-06-24T11:17:12;7.30;;;6.80;;
17175;SDS011;8703;48.996;9.594;2023-06-24T11:19:39;8.40;;;7.80;;
17175;SDS011;8703;48.996;9.594;2023-06-24T11:22:08;5.72;;;5.38;;
17175;SDS011;8703;48.996;9.594;2023-06-24T11:24:36;6.55;;;6.15;;
17175;SDS011;8703;48.996;9.594;2023-06-24T11:27:06;6.03;;;5.63;;
17175;SDS011;8703;48.996;9.594;2023-06-24T11:29:33;6.63;;;6.18;;
17175;SDS011;8703;48.996;9.594;2023-06-24T11:32:01;7.60;;;7.15;;
17175;SDS011;8703;48.996;9.594;2023-06-24T11:34:30;10.32;;;9.73;;
17175;SDS011;8703;48.996;9.594;2023-06-24T11:36:57;8.57;;;8.10;;
17175;SDS011;8703;48.996;9.594;2023-06-24T11:39:25;8.60;;;8.10;;
17175;SDS011;8703;48.996;9.594;2023-06-24T11:41:53;14.05;;;13.30;;
17175;SDS011;8703;48.996;9.594;2023-06-24T11:44:23;15.90;;;15.05;;
17175;SDS011;8703;48.996;9.594;2023-06-24T11:46:51;16.70;;;15.77;;
17175;SDS011;8703;48.996;9.594;2023-06-24T11:49:18;19.75;;;18.58;;
17175;SDS011;8703;48.996;9.594;2023-06-24T11:51:46;20.48;;;19.38;;
17175;SDS011;8703;48.996;9.594;2023-06-24T11:54:15;19.35;;;18.35;;
17175;SDS011;8703;48.996;9.594;2023-06-24T11:56:48;29.90;;;28.38;;
17175;SDS011;8703;48.996;9.594;2023-06-24T11:59:17;24.95;;;23.65;;
17175;SDS011;8703;48.996;9.594;2023-06-24T12:01:49;16.30;;;15.30;;
17175;SDS011;8703;48.996;9.594;2023-06-24T12:04:20;25.52;;;24.15;;
17175;SDS011;8703;48.996;9.594;2023-06-24T12:06:48;32.38;;;30.77;;
17175;SDS011;8703;48.996;9.594;2023-06-24T12:09:15;34.08;;;32.28;;
17175;SDS011;8703;48.996;9.594;2023-06-24T12:11:42;34.53;;;32.78;;
17175;SDS011;8703;48.996;9.594;2023-06-24T12:14:10;34.17;;;32.40;;
17175;SDS011;8703;48.996;9.594;2023-06-24T12:16:38;28.48;;;26.95;;
17175;SDS011;8703;48.996;9.594;2023-06-24T12:19:07;26.33;;;24.95;;
17175;SDS011;8703;48.996;9.594;2023-06-24T12:21:34;46.05;;;43.80;;
17175;SDS011;8703;48.996;9.594;2023-06-24T12:24:03;50.15;;;47.65;;
17175;SDS011;8703;48.996;9.594;2023-06-24T12:26:30;57.33;;;54.47;;
17175;SDS011;8703;48.996;9.594;2023-06-24T12:28:58;59.08;;;56.05;;
17175;SDS011;8703;48.996;9.594;2023-06-24T12:31:25;51.38;;;48.78;;
17175;SDS011;8703;48.996;9.594;2023-06-24T12:33:53;71.97;;;68.50;;
17175;SDS011;8703;48.996;9.594;2023-06-24T12:36:22;63.03;;;59.92;;
17175;SDS011;8703;48.996;9.594;2023-06-24T12:38:49;59.53;;;56.63;;
17175;SDS011;8703;48.996;9.594;2023-06-24T12:41:16;89.15;;;84.82;;
17175;SDS011;8703;48.996;9.594;2023-06-24T12:43:44;65.88;;;62.60;;
17175;SDS011;8703;48.996;9.594;2023-06-24T12:46:11;60.10;;;57.13;;
17175;SDS011;8703;48.996;9.594;2023-06-24T12:48:39;81.18;;;77.22;;
17175;SDS011;8703;48.996;9.594;2023-06-24T12:51:06;69.32;;;65.93;;
17175;SDS011;8703;48.996;9.594;2023-06-24T12:53:35;66.13;;;62.80;;
17175;SDS011;8703;48.996;9.594;2023-06-24T12:56:02;53.03;;;50.03;;
17175;SDS011;8703;48.996;9.594;2023-06-24T12:58:30;67.05;;;63.72;;
17175;SDS011;8703;48.996;9.594;2023-06-24T13:00:57;86.72;;;82.45;;
17175;SDS011;8703;48.996;9.594;2023-06-24T13:03:24;114.72;;;108.85;;
17175;SDS011;8703;48.996;9.594;2023-06-24T13:05:52;101.78;;;96.55;;
17175;SDS011;8703;48.996;9.594;2023-06-24T13:08:19;75.20;;;71.30;;
17175;SDS011;8703;48.996;9.594;2023-06-24T13:10:48;151.40;;;143.43;;
17175;SDS011;8703;48.996;9.594;2023-06-24T13:13:15;145.68;;;137.95;;
17175;SDS011;8703;48.996;9.594;2023-06-24T13:15:42;154.60;;;146.20;;
17175;SDS011;8703;48.996;9.594;2023-06-24T13:18:10;160.93;;;152.38;;
17175;SDS011;8703;48.996;9.594;2023-06-24T13:20:37;129.10;;;121.80;;
17175;SDS011;8703;48.996;9.594;2023-06-24T13:23:04;139.43;;;131.88;;
17175;SDS011;8703;48.996;9.594;2023-06-24T13:25:31;168.65;;;159.02;;
17175;SDS011;8703;48.996;9.594;2023-06-24T13:28:01;192.55;;;181.18;;
17175;SDS011;8703;48.996;9.594;2023-06-24T13:30:28;145.73;;;137.10;;
17175;SDS011;8703;48.996;9.594;2023-06-24T13:32:56;159.02;;;149.73;;
17175;SDS011;8703;48.996;9.594;2023-06-24T13:35:23;179.52;;;168.68;;
17175;SDS011;8703;48.996;9.594;2023-06-24T13:37:50;165.23;;;155.45;;
17175;SDS011;8703;48.996;9.594;2023-06-24T13:40:18;160.52;;;150.73;;
17175;SDS011;8703;48.996;9.594;2023-06-24T13:42:45;127.18;;;120.20;;
17175;SDS011;8703;48.996;9.594;2023-06-24T13:45:14;184.40;;;173.20;;
17175;SDS011;8703;48.996;9.594;2023-06-24T13:47:41;151.77;;;143.60;;
17175;SDS011;8703;48.996;9.594;2023-06-24T13:50:09;159.70;;;150.63;;
17175;SDS011;8703;48.996;9.594;2023-06-24T13:52:37;235.07;;;222.20;;
17175;SDS011;8703;48.996;9.594;2023-06-24T13:55:04;188.43;;;177.65;;
17175;SDS011;8703;48.996;9.594;2023-06-24T13:57:32;172.38;;;163.27;;
17175;SDS011;8703;48.996;9.594;2023-06-24T13:59:59;230.77;;;217.82;;
17175;SDS011;8703;48.996;9.594;2023-06-24T14:02:29;274.40;;;258.50;;
17175;SDS011;8703;48.996;9.594;2023-06-24T14:04:56;154.50;;;146.25;;
17175;SDS011;8703;48.996;9.594;2023-06-24T14:07:23;177.32;;;168.02;;
17175;SDS011;8703;48.996;9.594;2023-06-24T14:09:51;171.80;;;162.63;;
17175;SDS011;8703;48.996;9.594;2023-06-24T14:12:18;222.27;;;210.45;;
17175;SDS011;8703;48.996;9.594;2023-06-24T14:14:45;265.20;;;250.13;;
17175;SDS011;8703;48.996;9.594;2023-06-24T14:17:13;250.07;;;235.90;;
17175;SDS011;8703;48.996;9.594;2023-06-24T14:19:41;203.32;;;192.00;;
17175;SDS011;8703;48.996;9.594;2023-06-24T14:22:09;294.58;;;277.13;;
17175;SDS011;8703;48.996;9.594;2023-06-24T14:24:37;278.88;;;261.98;;
17175;SDS011;8703;48.996;9.594;2023-06-24T14:27:04;282.00;;;264.98;;
17175;SDS011;8703;48.996;9.594;2023-06-24T14:29:32;264.00;;;248.30;;
17175;SDS011;8703;48.996;9.594;2023-06-24T14:32:00;244.73;;;230.73;;
17175;SDS011;8703;48.996;9.594;2023-06-24T14:34:27;280.10;;;263.27;;
17175;SDS011;8703;48.996;9.594;2023-06-24T14:36:57;304.70;;;285.70;;
17175;SDS011;8703;48.996;9.594;2023-06-24T14:39:24;258.38;;;243.20;;
17175;SDS011;8703;48.996;9.594;2023-06-24T14:41:51;257.15;;;241.68;;
17175;SDS011;8703;48.996;9.594;2023-06-24T14:44:19;265.08;;;249.23;;
17175;SDS011;8703;48.996;9.594;2023-06-24T14:46:46;237.40;;;224.68;;
17175;SDS011;8703;48.996;9.594;2023-06-24T14:49:13;270.00;;;254.18;;
17175;SDS011;8703;48.996;9.594;2023-06-24T14:51:42;258.25;;;245.63;;
17175;SDS011;8703;48.996;9.594;2023-06-24T14:54:11;290.65;;;275.20;;
17175;SDS011;8703;48.996;9.594;2023-06-24T14:56:38;318.85;;;303.13;;
17175;SDS011;8703;48.996;9.594;2023-06-24T14:59:05;292.67;;;277.88;;
17175;SDS011;8703;48.996;9.594;2023-06-24T15:01:33;303.27;;;288.08;;
17175;SDS011;8703;48.996;9.594;2023-06-24T15:04:00;344.30;;;327.48;;
17175;SDS011;8703;48.996;9.594;2023-06-24T15:06:27;381.30;;;362.55;;